Outwell, United Kingdom
Current Conditions -  °F | °C
As of 1:50 PM on Thursday 30 Oct 2014 (Local Time) from EGYM Reporting Station
Haze Haze  
Wind Chill: 64°   Ceiling: 4000
Heat Index: 64°   Visibility: 4mi
Dew Point: 57°   Wind: 13mph
Humidity: 77%   Direction: 190°S
Pressure: 30.03"   Gusts: NA
Location:  52.61°N, 0.23°E
Report Text: EGYM 301350Z 19011KT 7000 HZ FEW012 BKN040 18/14 Q1017 WHT NOSIG
Loading
Personal Weather Stations






























Interactive Weather Map
Tropical Storm Tracking
New forecast layout! Learn more

10-Day Weather Forecast

Advertisements
Track Severe Weather on mobile